sensor_id;sensor_type;location;lat;lon;timestamp;P1;durP1;ratioP1;P2;durP2;ratioP2
31348;SDS011;17976;48.480;11.946;2023-04-03T06:25:00;10.32;;;5.40;;
31348;SDS011;17976;48.480;11.946;2023-04-03T06:27:26;7.72;;;4.82;;
31348;SDS011;17976;48.480;11.946;2023-04-03T06:29:52;8.13;;;5.20;;
31348;SDS011;17976;48.480;11.946;2023-04-03T06:32:18;9.80;;;5.35;;
31348;SDS011;17976;48.480;11.946;2023-04-03T06:34:44;6.55;;;5.10;;
31348;SDS011;17976;48.480;11.946;2023-04-03T06:37:18;8.38;;;4.90;;
31348;SDS011;17976;48.480;11.946;2023-04-03T06:39:44;7.93;;;4.93;;
31348;SDS011;17976;48.480;11.946;2023-04-03T06:42:10;11.77;;;6.22;;
31348;SDS011;17976;48.480;11.946;2023-04-03T06:44:36;8.60;;;4.47;;
31348;SDS011;17976;48.480;11.946;2023-04-03T06:47:03;8.60;;;4.60;;
31348;SDS011;17976;48.480;11.946;2023-04-03T06:49:29;7.60;;;4.80;;
31348;SDS011;17976;48.480;11.946;2023-04-03T06:51:55;7.22;;;4.20;;
31348;SDS011;17976;48.480;11.946;2023-04-03T06:54:21;7.20;;;4.05;;
31348;SDS011;17976;48.480;11.946;2023-04-03T06:56:48;8.10;;;4.00;;
31348;SDS011;17976;48.480;11.946;2023-04-03T06:59:14;11.68;;;4.47;;
31348;SDS011;17976;48.480;11.946;2023-04-03T07:01:40;9.75;;;4.28;;
31348;SDS011;17976;48.480;11.946;2023-04-03T07:04:07;8.05;;;4.90;;
31348;SDS011;17976;48.480;11.946;2023-04-03T07:06:33;8.73;;;4.43;;
31348;SDS011;17976;48.480;11.946;2023-04-03T07:09:00;6.50;;;4.35;;
31348;SDS011;17976;48.480;11.946;2023-04-03T07:11:26;8.25;;;4.35;;
31348;SDS011;17976;48.480;11.946;2023-04-03T07:13:52;8.27;;;4.38;;
31348;SDS011;17976;48.480;11.946;2023-04-03T07:19:32;7.90;;;4.07;;
31348;SDS011;17976;48.480;11.946;2023-04-03T07:21:58;6.00;;;3.78;;
31348;SDS011;17976;48.480;11.946;2023-04-03T07:24:24;7.00;;;3.78;;
31348;SDS011;17976;48.480;11.946;2023-04-03T07:26:51;9.20;;;4.25;;
31348;SDS011;17976;48.480;11.946;2023-04-03T07:29:17;7.00;;;3.70;;
31348;SDS011;17976;48.480;11.946;2023-04-03T07:31:46;7.68;;;4.70;;
31348;SDS011;17976;48.480;11.946;2023-04-03T07:34:12;5.18;;;3.90;;
31348;SDS011;17976;48.480;11.946;2023-04-03T07:36:38;7.75;;;4.07;;
31348;SDS011;17976;48.480;11.946;2023-04-03T07:39:04;9.98;;;4.35;;
31348;SDS011;17976;48.480;11.946;2023-04-03T07:41:32;6.93;;;3.90;;
31348;SDS011;17976;48.480;11.946;2023-04-03T07:43:57;8.57;;;4.05;;
31348;SDS011;17976;48.480;11.946;2023-04-03T07:46:23;7.03;;;3.75;;
31348;SDS011;17976;48.480;11.946;2023-04-03T07:48:49;5.80;;;4.05;;
31348;SDS011;17976;48.480;11.946;2023-04-03T07:51:15;5.40;;;3.38;;
31348;SDS011;17976;48.480;11.946;2023-04-03T07:53:41;7.68;;;4.05;;
31348;SDS011;17976;48.480;11.946;2023-04-03T07:56:08;6.82;;;3.55;;
31348;SDS011;17976;48.480;11.946;2023-04-03T07:58:34;6.93;;;3.75;;
31348;SDS011;17976;48.480;11.946;2023-04-03T08:01:01;9.07;;;4.28;;
31348;SDS011;17976;48.480;11.946;2023-04-03T08:03:26;6.15;;;3.55;;
31348;SDS011;17976;48.480;11.946;2023-04-03T08:05:52;9.38;;;3.88;;
31348;SDS011;17976;48.480;11.946;2023-04-03T08:08:21;7.90;;;4.13;;
31348;SDS011;17976;48.480;11.946;2023-04-03T08:10:50;10.45;;;4.15;;
31348;SDS011;17976;48.480;11.946;2023-04-03T08:13:17;5.38;;;3.58;;
31348;SDS011;17976;48.480;11.946;2023-04-03T08:15:43;6.00;;;3.45;;
31348;SDS011;17976;48.480;11.946;2023-04-03T08:18:10;7.00;;;3.10;;
31348;SDS011;17976;48.480;11.946;2023-04-03T08:20:37;4.40;;;3.08;;
31348;SDS011;17976;48.480;11.946;2023-04-03T08:23:03;6.90;;;3.40;;
31348;SDS011;17976;48.480;11.946;2023-04-03T08:25:29;9.18;;;3.05;;
31348;SDS011;17976;48.480;11.946;2023-04-03T08:27:55;5.28;;;3.20;;
31348;SDS011;17976;48.480;11.946;2023-04-03T08:30:21;6.95;;;3.03;;
31348;SDS011;17976;48.480;11.946;2023-04-03T08:32:47;5.35;;;3.30;;
31348;SDS011;17976;48.480;11.946;2023-04-03T08:35:13;9.80;;;2.90;;
31348;SDS011;17976;48.480;11.946;2023-04-03T08:37:39;9.75;;;2.70;;
31348;SDS011;17976;48.480;11.946;2023-04-03T08:40:06;6.38;;;3.20;;
31348;SDS011;17976;48.480;11.946;2023-04-03T08:45:15;5.00;;;2.25;;
31348;SDS011;17976;48.480;11.946;2023-04-03T08:50:15;6.07;;;1.95;;
31348;SDS011;17976;48.480;11.946;2023-04-03T08:52:44;4.80;;;2.03;;
31348;SDS011;17976;48.480;11.946;2023-04-03T08:55:17;4.40;;;2.00;;
31348;SDS011;17976;48.480;11.946;2023-04-03T08:57:45;3.55;;;1.88;;
31348;SDS011;17976;48.480;11.946;2023-04-03T09:02:46;2.80;;;1.98;;
31348;SDS011;17976;48.480;11.946;2023-04-03T09:05:17;4.07;;;1.77;;
31348;SDS011;17976;48.480;11.946;2023-04-03T09:08:00;3.40;;;1.77;;
31348;SDS011;17976;48.480;11.946;2023-04-03T09:10:28;4.85;;;1.90;;
31348;SDS011;17976;48.480;11.946;2023-04-03T09:13:39;3.72;;;1.70;;
31348;SDS011;17976;48.480;11.946;2023-04-03T09:15:46;5.88;;;1.88;;
31348;SDS011;17976;48.480;11.946;2023-04-03T09:18:13;2.08;;;1.58;;
31348;SDS011;17976;48.480;11.946;2023-04-03T09:25:48;4.47;;;1.95;;
31348;SDS011;17976;48.480;11.946;2023-04-03T09:28:14;4.13;;;1.80;;
31348;SDS011;17976;48.480;11.946;2023-04-03T09:30:40;4.20;;;2.08;;
31348;SDS011;17976;48.480;11.946;2023-04-03T09:33:06;4.53;;;1.88;;
31348;SDS011;17976;48.480;11.946;2023-04-03T09:35:34;4.90;;;1.83;;
31348;SDS011;17976;48.480;11.946;2023-04-03T09:38:02;6.00;;;1.77;;
31348;SDS011;17976;48.480;11.946;2023-04-03T09:40:40;4.72;;;1.80;;
31348;SDS011;17976;48.480;11.946;2023-04-03T09:45:51;3.28;;;1.63;;
31348;SDS011;17976;48.480;11.946;2023-04-03T09:48:22;4.57;;;1.98;;
31348;SDS011;17976;48.480;11.946;2023-04-03T09:53:26;4.70;;;1.30;;
31348;SDS011;17976;48.480;11.946;2023-04-03T09:55:52;5.35;;;1.35;;
31348;SDS011;17976;48.480;11.946;2023-04-03T09:58:25;2.70;;;1.38;;
31348;SDS011;17976;48.480;11.946;2023-04-03T10:00:56;2.92;;;1.35;;
31348;SDS011;17976;48.480;11.946;2023-04-03T10:03:33;3.53;;;0.77;;
31348;SDS011;17976;48.480;11.946;2023-04-03T10:06:00;3.67;;;0.95;;
31348;SDS011;17976;48.480;11.946;2023-04-03T10:08:30;3.40;;;1.33;;
31348;SDS011;17976;48.480;11.946;2023-04-03T10:11:15;2.70;;;1.20;;
31348;SDS011;17976;48.480;11.946;2023-04-03T10:13:52;2.17;;;1.02;;
31348;SDS011;17976;48.480;11.946;2023-04-03T10:16:20;3.42;;;1.23;;
31348;SDS011;17976;48.480;11.946;2023-04-03T10:18:59;2.35;;;0.98;;
31348;SDS011;17976;48.480;11.946;2023-04-03T10:21:35;1.48;;;0.80;;
31348;SDS011;17976;48.480;11.946;2023-04-03T10:26:58;3.15;;;1.00;;
31348;SDS011;17976;48.480;11.946;2023-04-03T10:29:30;2.72;;;1.17;;
31348;SDS011;17976;48.480;11.946;2023-04-03T10:32:01;3.25;;;1.27;;
31348;SDS011;17976;48.480;11.946;2023-04-03T10:34:29;4.03;;;1.30;;
31348;SDS011;17976;48.480;11.946;2023-04-03T10:39:35;2.25;;;1.15;;
31348;SDS011;17976;48.480;11.946;2023-04-03T10:44:47;3.58;;;1.30;;
31348;SDS011;17976;48.480;11.946;2023-04-03T10:47:21;3.03;;;1.42;;
31348;SDS011;17976;48.480;11.946;2023-04-03T10:52:20;2.22;;;1.25;;
31348;SDS011;17976;48.480;11.946;2023-04-03T10:57:23;3.20;;;1.23;;
31348;SDS011;17976;48.480;11.946;2023-04-03T10:59:50;3.63;;;1.40;;
31348;SDS011;17976;48.480;11.946;2023-04-03T11:02:32;4.50;;;1.40;;
31348;SDS011;17976;48.480;11.946;2023-04-03T11:05:04;1.75;;;0.80;;
31348;SDS011;17976;48.480;11.946;2023-04-03T11:07:38;3.92;;;1.73;;
31348;SDS011;17976;48.480;11.946;2023-04-03T11:13:08;1.30;;;1.20;;
31348;SDS011;17976;48.480;11.946;2023-04-03T11:15:36;1.85;;;1.20;;
31348;SDS011;17976;48.480;11.946;2023-04-03T11:21:07;4.65;;;1.17;;
31348;SDS011;17976;48.480;11.946;2023-04-03T11:23:36;4.25;;;1.15;;
31348;SDS011;17976;48.480;11.946;2023-04-03T11:26:14;2.30;;;1.02;;
31348;SDS011;17976;48.480;11.946;2023-04-03T11:28:40;1.80;;;1.00;;
31348;SDS011;17976;48.480;11.946;2023-04-03T11:36:30;3.90;;;1.30;;
31348;SDS011;17976;48.480;11.946;2023-04-03T11:38:58;2.42;;;1.10;;
31348;SDS011;17976;48.480;11.946;2023-04-03T11:41:30;4.60;;;1.77;;
31348;SDS011;17976;48.480;11.946;2023-04-03T11:44:00;4.50;;;1.27;;
31348;SDS011;17976;48.480;11.946;2023-04-03T11:47:09;3.05;;;1.08;;
31348;SDS011;17976;48.480;11.946;2023-04-03T11:52:01;3.13;;;1.33;;
31348;SDS011;17976;48.480;11.946;2023-04-03T11:54:46;3.00;;;1.27;;
31348;SDS011;17976;48.480;11.946;2023-04-03T11:57:22;5.30;;;0.80;;
31348;SDS011;17976;48.480;11.946;2023-04-03T12:02:53;1.95;;;0.80;;
31348;SDS011;17976;48.480;11.946;2023-04-03T12:05:29;5.10;;;1.10;;
31348;SDS011;17976;48.480;11.946;2023-04-03T12:08:30;3.80;;;1.38;;
31348;SDS011;17976;48.480;11.946;2023-04-03T12:13:32;2.45;;;1.00;;
31348;SDS011;17976;48.480;11.946;2023-04-03T12:15:58;2.75;;;1.45;;
31348;SDS011;17976;48.480;11.946;2023-04-03T12:21:10;1.63;;;1.05;;
31348;SDS011;17976;48.480;11.946;2023-04-03T12:23:56;1.42;;;0.82;;
31348;SDS011;17976;48.480;11.946;2023-04-03T12:26:24;2.05;;;1.17;;
31348;SDS011;17976;48.480;11.946;2023-04-03T12:28:51;1.55;;;1.15;;
31348;SDS011;17976;48.480;11.946;2023-04-03T12:31:18;2.17;;;0.88;;
31348;SDS011;17976;48.480;11.946;2023-04-03T12:33:51;3.00;;;1.08;;
31348;SDS011;17976;48.480;11.946;2023-04-03T12:37:00;1.90;;;0.98;;
31348;SDS011;17976;48.480;11.946;2023-04-03T12:44:55;4.55;;;1.20;;
31348;SDS011;17976;48.480;11.946;2023-04-03T12:47:27;3.55;;;1.10;;
31348;SDS011;17976;48.480;11.946;2023-04-03T12:49:53;2.33;;;1.10;;
31348;SDS011;17976;48.480;11.946;2023-04-03T12:54:52;1.83;;;0.82;;
31348;SDS011;17976;48.480;11.946;2023-04-03T12:57:20;3.05;;;1.05;;
31348;SDS011;17976;48.480;11.946;2023-04-03T12:59:47;3.40;;;1.33;;
31348;SDS011;17976;48.480;11.946;2023-04-03T13:02:21;2.40;;;1.02;;
31348;SDS011;17976;48.480;11.946;2023-04-03T13:04:48;2.60;;;1.13;;
31348;SDS011;17976;48.480;11.946;2023-04-03T13:07:34;4.40;;;1.15;;
31348;SDS011;17976;48.480;11.946;2023-04-03T13:12:32;2.05;;;0.93;;
31348;SDS011;17976;48.480;11.946;2023-04-03T13:15:00;1.88;;;0.95;;
31348;SDS011;17976;48.480;11.946;2023-04-03T13:17:29;3.50;;;0.85;;
31348;SDS011;17976;48.480;11.946;2023-04-03T13:19:54;3.85;;;1.00;;
31348;SDS011;17976;48.480;11.946;2023-04-03T13:24:46;2.03;;;0.80;;
31348;SDS011;17976;48.480;11.946;2023-04-03T13:27:14;1.38;;;0.82;;
31348;SDS011;17976;48.480;11.946;2023-04-03T13:29:40;1.52;;;0.90;;
31348;SDS011;17976;48.480;11.946;2023-04-03T13:32:06;1.90;;;0.90;;
31348;SDS011;17976;48.480;11.946;2023-04-03T13:34:37;1.63;;;0.93;;
31348;SDS011;17976;48.480;11.946;2023-04-03T13:37:04;2.13;;;0.98;;
31348;SDS011;17976;48.480;11.946;2023-04-03T13:39:33;1.77;;;0.80;;
31348;SDS011;17976;48.480;11.946;2023-04-03T13:42:00;2.10;;;0.88;;
31348;SDS011;17976;48.480;11.946;2023-04-03T13:44:29;2.53;;;1.00;;
31348;SDS011;17976;48.480;11.946;2023-04-03T13:46:57;2.53;;;1.13;;
31348;SDS011;17976;48.480;11.946;2023-04-03T13:51:49;1.92;;;0.80;;
31348;SDS011;17976;48.480;11.946;2023-04-03T13:54:24;1.80;;;1.00;;
31348;SDS011;17976;48.480;11.946;2023-04-03T13:56:57;2.45;;;1.00;;
31348;SDS011;17976;48.480;11.946;2023-04-03T13:59:24;3.97;;;1.25;;
31348;SDS011;17976;48.480;11.946;2023-04-03T14:04:20;1.92;;;1.20;;
31348;SDS011;17976;48.480;11.946;2023-04-03T14:06:46;4.45;;;1.40;;
31348;SDS011;17976;48.480;11.946;2023-04-03T14:09:13;2.25;;;0.85;;
31348;SDS011;17976;48.480;11.946;2023-04-03T14:11:39;1.88;;;1.00;;
31348;SDS011;17976;48.480;11.946;2023-04-03T14:14:27;1.70;;;0.88;;
31348;SDS011;17976;48.480;11.946;2023-04-03T14:16:56;1.58;;;0.90;;
31348;SDS011;17976;48.480;11.946;2023-04-03T14:19:25;2.28;;;0.95;;
31348;SDS011;17976;48.480;11.946;2023-04-03T14:21:52;2.03;;;1.00;;
31348;SDS011;17976;48.480;11.946;2023-04-03T14:24:18;2.47;;;1.42;;
31348;SDS011;17976;48.480;11.946;2023-04-03T14:26:45;2.58;;;0.95;;
31348;SDS011;17976;48.480;11.946;2023-04-03T14:29:11;4.40;;;1.27;;
31348;SDS011;17976;48.480;11.946;2023-04-03T14:31:38;2.25;;;1.00;;
31348;SDS011;17976;48.480;11.946;2023-04-03T14:34:04;2.00;;;1.10;;
31348;SDS011;17976;48.480;11.946;2023-04-03T14:36:30;3.80;;;1.00;;
31348;SDS011;17976;48.480;11.946;2023-04-03T14:38:57;2.58;;;1.15;;
31348;SDS011;17976;48.480;11.946;2023-04-03T14:41:25;1.38;;;0.98;;
31348;SDS011;17976;48.480;11.946;2023-04-03T14:43:51;2.60;;;0.95;;
31348;SDS011;17976;48.480;11.946;2023-04-03T14:46:19;3.10;;;1.15;;
31348;SDS011;17976;48.480;11.946;2023-04-03T14:48:47;3.88;;;1.33;;
31348;SDS011;17976;48.480;11.946;2023-04-03T14:51:13;2.38;;;1.05;;
31348;SDS011;17976;48.480;11.946;2023-04-03T14:53:41;2.28;;;1.17;;
31348;SDS011;17976;48.480;11.946;2023-04-03T14:56:11;2.45;;;1.20;;
31348;SDS011;17976;48.480;11.946;2023-04-03T14:58:37;4.28;;;1.10;;
31348;SDS011;17976;48.480;11.946;2023-04-03T15:01:03;2.97;;;1.20;;
31348;SDS011;17976;48.480;11.946;2023-04-03T15:03:29;3.92;;;1.30;;
31348;SDS011;17976;48.480;11.946;2023-04-03T15:05:55;3.60;;;1.50;;
31348;SDS011;17976;48.480;11.946;2023-04-03T15:08:26;3.30;;;1.30;;
31348;SDS011;17976;48.480;11.946;2023-04-03T15:10:55;1.65;;;1.10;;
31348;SDS011;17976;48.480;11.946;2023-04-03T15:13:22;2.17;;;1.48;;
31348;SDS011;17976;48.480;11.946;2023-04-03T15:15:48;4.90;;;1.33;;
31348;SDS011;17976;48.480;11.946;2023-04-03T15:18:15;1.95;;;1.10;;
31348;SDS011;17976;48.480;11.946;2023-04-03T15:20:42;3.50;;;1.15;;
31348;SDS011;17976;48.480;11.946;2023-04-03T15:23:09;3.25;;;1.20;;
31348;SDS011;17976;48.480;11.946;2023-04-03T15:25:35;2.70;;;1.20;;
31348;SDS011;17976;48.480;11.946;2023-04-03T15:28:01;3.75;;;1.20;;
31348;SDS011;17976;48.480;11.946;2023-04-03T15:30:27;2.10;;;1.30;;
31348;SDS011;17976;48.480;11.946;2023-04-03T15:32:53;1.52;;;1.00;;
31348;SDS011;17976;48.480;11.946;2023-04-03T15:35:20;2.58;;;1.20;;
31348;SDS011;17976;48.480;11.946;2023-04-03T15:37:46;2.13;;;1.20;;
31348;SDS011;17976;48.480;11.946;2023-04-03T15:40:13;3.47;;;1.23;;
31348;SDS011;17976;48.480;11.946;2023-04-03T15:42:39;2.78;;;1.15;;
31348;SDS011;17976;48.480;11.946;2023-04-03T15:45:06;2.90;;;1.88;;
31348;SDS011;17976;48.480;11.946;2023-04-03T15:47:32;2.58;;;1.20;;
31348;SDS011;17976;48.480;11.946;2023-04-03T15:49:58;1.50;;;1.17;;
31348;SDS011;17976;48.480;11.946;2023-04-03T15:52:24;3.28;;;1.23;;
31348;SDS011;17976;48.480;11.946;2023-04-03T15:54:50;4.03;;;1.10;;
31348;SDS011;17976;48.480;11.946;2023-04-03T15:57:16;1.70;;;1.15;;
31348;SDS011;17976;48.480;11.946;2023-04-03T15:59:42;2.80;;;1.42;;
31348;SDS011;17976;48.480;11.946;2023-04-03T16:02:08;1.98;;;1.45;;
31348;SDS011;17976;48.480;11.946;2023-04-03T16:04:34;2.83;;;1.40;;
31348;SDS011;17976;48.480;11.946;2023-04-03T16:07:01;4.03;;;1.27;;
31348;SDS011;17976;48.480;11.946;2023-04-03T16:09:27;2.20;;;1.23;;
31348;SDS011;17976;48.480;11.946;2023-04-03T16:11:53;3.13;;;0.95;;
31348;SDS011;17976;48.480;11.946;2023-04-03T16:14:19;3.55;;;1.40;;
31348;SDS011;17976;48.480;11.946;2023-04-03T16:16:45;3.53;;;1.40;;
31348;SDS011;17976;48.480;11.946;2023-04-03T16:19:11;2.10;;;1.02;;
31348;SDS011;17976;48.480;11.946;2023-04-03T16:21:38;2.63;;;1.02;;
31348;SDS011;17976;48.480;11.946;2023-04-03T16:24:04;6.35;;;1.80;;
31348;SDS011;17976;48.480;11.946;2023-04-03T16:26:30;2.08;;;1.20;;
31348;SDS011;17976;48.480;11.946;2023-04-03T16:28:56;4.20;;;1.13;;
31348;SDS011;17976;48.480;11.946;2023-04-03T16:31:22;4.28;;;1.42;;
31348;SDS011;17976;48.480;11.946;2023-04-03T16:33:49;3.90;;;1.33;;
31348;SDS011;17976;48.480;11.946;2023-04-03T16:36:15;5.30;;;1.42;;
31348;SDS011;17976;48.480;11.946;2023-04-03T16:38:41;3.88;;;1.20;;
31348;SDS011;17976;48.480;11.946;2023-04-03T16:41:07;2.15;;;1.30;;
31348;SDS011;17976;48.480;11.946;2023-04-03T16:43:33;3.17;;;1.48;;
31348;SDS011;17976;48.480;11.946;2023-04-03T16:46:00;2.80;;;1.40;;
31348;SDS011;17976;48.480;11.946;2023-04-03T16:48:27;2.13;;;1.15;;
31348;SDS011;17976;48.480;11.946;2023-04-03T16:50:53;2.72;;;1.17;;
31348;SDS011;17976;48.480;11.946;2023-04-03T16:56:39;3.42;;;1.30;;
31348;SDS011;17976;48.480;11.946;2023-04-03T16:59:05;3.47;;;1.95;;
31348;SDS011;17976;48.480;11.946;2023-04-03T17:01:32;3.45;;;1.33;;
31348;SDS011;17976;48.480;11.946;2023-04-03T17:03:58;2.28;;;1.20;;
31348;SDS011;17976;48.480;11.946;2023-04-03T17:06:24;3.22;;;1.50;;
31348;SDS011;17976;48.480;11.946;2023-04-03T17:08:50;2.53;;;1.10;;
31348;SDS011;17976;48.480;11.946;2023-04-03T17:11:17;3.42;;;1.55;;
31348;SDS011;17976;48.480;11.946;2023-04-03T17:13:43;3.13;;;1.52;;
31348;SDS011;17976;48.480;11.946;2023-04-03T17:16:10;4.65;;;1.58;;
31348;SDS011;17976;48.480;11.946;2023-04-03T17:18:36;6.88;;;1.92;;
31348;SDS011;17976;48.480;11.946;2023-04-03T17:21:03;1.80;;;1.27;;
31348;SDS011;17976;48.480;11.946;2023-04-03T17:23:29;1.92;;;1.25;;
31348;SDS011;17976;48.480;11.946;2023-04-03T17:25:55;2.72;;;1.40;;
31348;SDS011;17976;48.480;11.946;2023-04-03T17:28:22;3.13;;;1.25;;
31348;SDS011;17976;48.480;11.946;2023-04-03T17:30:54;3.58;;;1.50;;
31348;SDS011;17976;48.480;11.946;2023-04-03T17:33:21;3.13;;;1.40;;
31348;SDS011;17976;48.480;11.946;2023-04-03T17:35:47;2.13;;;1.20;;
31348;SDS011;17976;48.480;11.946;2023-04-03T17:38:13;2.42;;;1.10;;
31348;SDS011;17976;48.480;11.946;2023-04-03T17:40:39;3.60;;;1.42;;
31348;SDS011;17976;48.480;11.946;2023-04-03T17:43:05;5.18;;;1.67;;
31348;SDS011;17976;48.480;11.946;2023-04-03T17:45:31;4.13;;;1.27;;
31348;SDS011;17976;48.480;11.946;2023-04-03T17:47:57;3.47;;;1.55;;
31348;SDS011;17976;48.480;11.946;2023-04-03T17:50:23;2.85;;;1.20;;
31348;SDS011;17976;48.480;11.946;2023-04-03T17:52:49;4.53;;;1.63;;
31348;SDS011;17976;48.480;11.946;2023-04-03T17:55:15;3.38;;;1.42;;
31348;SDS011;17976;48.480;11.946;2023-04-03T17:57:42;3.70;;;1.42;;
31348;SDS011;17976;48.480;11.946;2023-04-03T18:00:08;7.90;;;1.58;;
31348;SDS011;17976;48.480;11.946;2023-04-03T18:02:35;2.58;;;1.33;;
31348;SDS011;17976;48.480;11.946;2023-04-03T18:05:01;3.33;;;1.50;;
31348;SDS011;17976;48.480;11.946;2023-04-03T18:07:27;2.33;;;1.20;;
31348;SDS011;17976;48.480;11.946;2023-04-03T18:09:53;3.55;;;1.42;;
31348;SDS011;17976;48.480;11.946;2023-04-03T18:12:19;3.00;;;1.77;;
31348;SDS011;17976;48.480;11.946;2023-04-03T18:14:45;8.40;;;2.30;;
31348;SDS011;17976;48.480;11.946;2023-04-03T18:17:11;3.85;;;1.50;;
31348;SDS011;17976;48.480;11.946;2023-04-03T18:19:37;6.05;;;1.40;;
31348;SDS011;17976;48.480;11.946;2023-04-03T18:22:05;3.38;;;1.70;;
31348;SDS011;17976;48.480;11.946;2023-04-03T18:24:32;5.15;;;1.90;;
31348;SDS011;17976;48.480;11.946;2023-04-03T18:27:00;3.53;;;1.40;;
31348;SDS011;17976;48.480;11.946;2023-04-03T18:29:27;3.20;;;1.60;;
31348;SDS011;17976;48.480;11.946;2023-04-03T18:31:54;6.57;;;1.88;;
31348;SDS011;17976;48.480;11.946;2023-04-03T18:34:21;1.65;;;1.20;;
31348;SDS011;17976;48.480;11.946;2023-04-03T18:36:47;5.57;;;1.90;;
31348;SDS011;17976;48.480;11.946;2023-04-03T18:39:13;2.45;;;1.40;;
31348;SDS011;17976;48.480;11.946;2023-04-03T18:41:39;3.47;;;1.63;;
31348;SDS011;17976;48.480;11.946;2023-04-03T18:44:06;3.70;;;1.83;;
31348;SDS011;17976;48.480;11.946;2023-04-03T18:46:32;3.33;;;1.60;;
31348;SDS011;17976;48.480;11.946;2023-04-03T18:48:59;3.22;;;1.20;;
31348;SDS011;17976;48.480;11.946;2023-04-03T18:51:25;3.70;;;1.58;;
31348;SDS011;17976;48.480;11.946;2023-04-03T18:53:51;5.25;;;1.50;;
31348;SDS011;17976;48.480;11.946;2023-04-03T18:56:17;4.97;;;1.67;;
31348;SDS011;17976;48.480;11.946;2023-04-03T18:58:43;5.55;;;1.70;;
31348;SDS011;17976;48.480;11.946;2023-04-03T19:01:09;3.92;;;1.92;;
31348;SDS011;17976;48.480;11.946;2023-04-03T19:03:35;3.95;;;1.65;;
31348;SDS011;17976;48.480;11.946;2023-04-03T19:06:02;1.77;;;1.38;;
31348;SDS011;17976;48.480;11.946;2023-04-03T19:08:28;3.53;;;1.30;;
31348;SDS011;17976;48.480;11.946;2023-04-03T19:10:54;4.40;;;1.50;;
31348;SDS011;17976;48.480;11.946;2023-04-03T19:13:20;4.15;;;1.85;;
31348;SDS011;17976;48.480;11.946;2023-04-03T19:15:46;4.75;;;1.90;;
31348;SDS011;17976;48.480;11.946;2023-04-03T19:18:12;4.60;;;1.70;;
31348;SDS011;17976;48.480;11.946;2023-04-03T19:20:38;3.10;;;1.75;;
31348;SDS011;17976;48.480;11.946;2023-04-03T19:23:04;2.85;;;1.55;;
31348;SDS011;17976;48.480;11.946;2023-04-03T19:25:32;3.75;;;1.75;;
31348;SDS011;17976;48.480;11.946;2023-04-03T19:27:58;6.25;;;1.63;;
31348;SDS011;17976;48.480;11.946;2023-04-03T19:30:24;4.18;;;1.80;;
31348;SDS011;17976;48.480;11.946;2023-04-03T19:32:50;4.85;;;1.50;;
31348;SDS011;17976;48.480;11.946;2023-04-03T19:35:17;8.10;;;2.28;;
31348;SDS011;17976;48.480;11.946;2023-04-03T19:37:43;3.67;;;1.80;;
31348;SDS011;17976;48.480;11.946;2023-04-03T19:40:12;4.88;;;1.50;;
31348;SDS011;17976;48.480;11.946;2023-04-03T19:42:38;3.90;;;1.73;;
31348;SDS011;17976;48.480;11.946;2023-04-03T19:45:07;3.28;;;1.70;;
31348;SDS011;17976;48.480;11.946;2023-04-03T19:47:33;3.63;;;1.60;;
31348;SDS011;17976;48.480;11.946;2023-04-03T19:49:59;2.72;;;1.80;;
31348;SDS011;17976;48.480;11.946;2023-04-03T19:52:25;3.47;;;1.80;;
31348;SDS011;17976;48.480;11.946;2023-04-03T19:54:51;7.78;;;2.05;;
31348;SDS011;17976;48.480;11.946;2023-04-03T19:57:17;3.00;;;1.73;;
31348;SDS011;17976;48.480;11.946;2023-04-03T19:59:43;3.75;;;1.80;;
